Time;durP1;ratioP1;P1;durP2;ratioP2;P2;SDS_P1;SDS_P2;PMS_P1;PMS_P2;Temp;Humidity;BMP_temperature;BMP_pressure;BME280_temperature;BME280_humidity;BME280_pressure;Samples;Min_cycle;Max_cycle;Signal;HPM_P1;HPM_P2
2021/03/16 00:01:26;;;;;;;5.50;4.70;;;;;;;2.01;95.97;97843.41;4994371;28;20204;-68
2021/03/16 00:03:53;;;;;;;6.27;5.60;;;;;;;2.01;95.97;97847.81;5005495;28;20320;-68
2021/03/16 00:06:21;;;;;;;6.23;5.63;;;;;;;2.05;95.84;97851.00;4996460;28;20235;-68
2021/03/16 00:08:48;;;;;;;6.20;5.57;;;;;;;2.14;95.77;97856.41;4997523;28;20224;-68
2021/03/16 00:11:15;;;;;;;9.70;5.30;;;;;;;2.16;95.72;97859.72;4999623;28;20726;-68
2021/03/16 00:13:43;;;;;;;6.50;5.90;;;;;;;2.15;96.16;97859.88;4988721;28;20229;-68
2021/03/16 00:16:10;;;;;;;8.50;6.07;;;;;;;2.16;95.86;97872.00;5000243;28;20216;-69
2021/03/16 00:18:37;;;;;;;7.20;6.60;;;;;;;2.33;93.93;97875.13;4998591;28;20268;-68
2021/03/16 00:21:05;;;;;;;7.77;6.37;;;;;;;2.36;93.94;97867.03;4999693;28;20221;-69
2021/03/16 00:23:32;;;;;;;11.40;4.70;;;;;;;2.31;93.47;97876.06;4997231;28;20240;-68
2021/03/16 00:25:59;;;;;;;5.50;5.00;;;;;;;2.26;93.19;97865.13;4993775;28;20232;-68
2021/03/16 00:28:26;;;;;;;6.13;5.17;;;;;;;2.29;93.60;97880.56;4997953;28;20476;-69
2021/03/16 00:30:53;;;;;;;6.50;5.13;;;;;;;2.33;92.31;97880.34;4998608;28;20207;-69
2021/03/16 00:33:21;;;;;;;5.60;5.10;;;;;;;2.37;92.26;97884.41;4996739;28;20228;-69
2021/03/16 00:35:49;;;;;;;5.90;5.40;;;;;;;2.30;92.36;97889.28;5003594;28;20736;-68
2021/03/16 00:38:16;;;;;;;6.50;5.27;;;;;;;2.47;91.39;97885.41;5000272;28;20255;-68
2021/03/16 00:40:44;;;;;;;11.43;5.43;;;;;;;2.33;92.36;97889.03;5000326;28;20209;-70
2021/03/16 00:43:12;;;;;;;7.87;6.00;;;;;;;2.35;92.09;97894.13;4989773;28;20315;-69
2021/03/16 00:45:39;;;;;;;8.60;5.83;;;;;;;2.35;91.91;97887.16;4998019;28;20617;-67
2021/03/16 00:48:07;;;;;;;6.43;5.47;;;;;;;2.33;91.66;97896.03;4997312;28;20241;-68
2021/03/16 00:50:35;;;;;;;6.13;5.40;;;;;;;2.36;91.53;97888.81;4998169;28;20206;-68
2021/03/16 00:53:02;;;;;;;8.90;6.63;;;;;;;2.35;91.37;97895.00;4995789;28;20234;-68
2021/03/16 00:55:36;;;;;;;6.73;5.67;;;;;;;2.40;91.54;97902.47;4997151;28;20681;-69
2021/03/16 00:58:04;;;;;;;6.93;6.23;;;;;;;2.40;91.02;97899.84;4994794;28;20602;-69
2021/03/16 01:00:31;;;;;;;7.50;6.53;;;;;;;2.41;91.49;97898.91;4987697;28;20213;-68
2021/03/16 01:02:58;;;;;;;6.40;5.80;;;;;;;2.30;92.47;97900.56;4999515;28;20236;-68
2021/03/16 01:05:25;;;;;;;8.33;7.33;;;;;;;2.32;91.07;97903.06;4997809;28;20361;-68
2021/03/16 01:07:53;;;;;;;6.30;5.70;;;;;;;2.31;91.43;97910.06;4996484;28;20228;-68
2021/03/16 01:10:22;;;;;;;8.90;6.13;;;;;;;2.40;90.90;97905.94;4987254;28;20212;-68
2021/03/16 01:12:49;;;;;;;9.50;5.90;;;;;;;2.37;90.73;97911.41;4987469;28;20228;-68
2021/03/16 01:15:17;;;;;;;8.40;5.67;;;;;;;2.39;89.82;97912.13;4993931;28;20206;-68
2021/03/16 01:17:44;;;;;;;8.73;5.83;;;;;;;2.50;88.78;97918.31;4991377;28;20211;-69
2021/03/16 01:20:16;;;;;;;7.43;5.73;;;;;;;2.42;89.59;97924.13;4993963;28;20209;-68
2021/03/16 01:22:44;;;;;;;8.17;5.77;;;;;;;2.41;88.59;97918.06;4990761;28;20253;-68
2021/03/16 01:25:12;;;;;;;9.27;5.83;;;;;;;2.40;88.78;97920.78;4994321;28;20240;-69
2021/03/16 01:27:40;;;;;;;6.90;5.80;;;;;;;2.46;89.61;97922.94;4998890;28;20609;-68
2021/03/16 01:30:08;;;;;;;6.33;5.70;;;;;;;2.45;88.65;97926.50;4991801;28;20615;-68
2021/03/16 01:32:37;;;;;;;7.13;5.63;;;;;;;2.51;88.06;97928.69;4996295;28;20209;-67
2021/03/16 01:35:07;;;;;;;8.03;5.80;;;;;;;2.38;89.39;97927.91;4993332;28;20217;-68
2021/03/16 01:37:34;;;;;;;6.30;5.70;;;;;;;2.43;89.39;97933.63;4994114;28;20217;-67
2021/03/16 01:40:01;;;;;;;8.40;5.30;;;;;;;2.39;90.33;97929.56;4993674;28;20476;-67
2021/03/16 01:42:28;;;;;;;8.50;6.27;;;;;;;2.49;89.64;97934.97;4998814;28;20205;-69
2021/03/16 01:44:55;;;;;;;7.60;5.80;;;;;;;2.53;88.87;97939.03;4984658;28;20920;-67
2021/03/16 01:47:22;;;;;;;6.97;5.47;;;;;;;2.50;88.32;97940.09;4990340;28;20680;-68
2021/03/16 01:49:50;;;;;;;7.00;6.30;;;;;;;2.49;88.82;97933.19;4994278;28;20259;-67
2021/03/16 01:52:17;;;;;;;6.83;5.23;;;;;;;2.47;89.15;97948.19;4996846;28;20205;-68
2021/03/16 01:54:45;;;;;;;6.53;5.90;;;;;;;2.47;88.41;97940.34;4993874;28;20968;-68
2021/03/16 01:57:14;;;;;;;6.00;5.37;;;;;;;2.48;88.69;97943.75;4998191;28;20205;-68
2021/03/16 01:59:41;;;;;;;6.20;5.30;;;;;;;2.43;89.46;97938.88;4981580;28;20213;-68
2021/03/16 02:02:08;;;;;;;7.37;5.57;;;;;;;2.39;89.25;97946.13;5000276;28;20240;-68
2021/03/16 02:04:36;;;;;;;10.47;5.83;;;;;;;2.37;88.94;97939.31;4991016;28;20225;-67
2021/03/16 02:07:09;;;;;;;7.90;6.13;;;;;;;2.38;89.01;97938.38;4996081;28;20791;-68
2021/03/16 02:09:39;;;;;;;5.63;5.10;;;;;;;2.31;89.02;97935.41;4988460;28;20197;-68
2021/03/16 02:12:09;;;;;;;12.50;5.93;;;;;;;2.28;89.66;97940.84;4994211;28;20198;-68
2021/03/16 02:14:39;;;;;;;13.53;5.30;;;;;;;2.46;88.42;97941.25;4994521;28;20600;-68
2021/03/16 02:17:08;;;;;;;6.17;5.60;;;;;;;2.40;89.38;97949.56;4991718;28;20197;-68
2021/03/16 02:19:52;;;;;;;6.63;5.73;;;;;;;2.32;91.78;97958.00;4996115;28;20594;-68
2021/03/16 02:22:20;;;;;;;10.90;6.17;;;;;;;2.20;92.85;97957.09;4988871;28;20545;-70
2021/03/16 02:25:04;;;;;;;9.47;6.27;;;;;;;2.01;95.76;97954.97;4991407;28;20231;-68
2021/03/16 02:27:42;;;;;;;8.77;6.73;;;;;;;1.92;96.94;97959.09;4991794;28;20680;-69
2021/03/16 02:30:11;;;;;;;8.63;7.07;;;;;;;1.88;97.50;97968.09;4990121;28;20205;-68
2021/03/16 02:32:41;;;;;;;13.00;6.50;;;;;;;1.85;98.31;97966.53;4990408;28;20212;-68
2021/03/16 02:35:11;;;;;;;6.43;5.83;;;;;;;1.79;97.77;97961.75;4985075;28;20237;-69
2021/03/16 02:37:39;;;;;;;7.87;6.30;;;;;;;1.92;97.67;97972.16;4991017;28;20217;-68
2021/03/16 02:40:08;;;;;;;9.10;6.23;;;;;;;1.84;96.98;97969.25;4994639;28;20622;-69
2021/03/16 02:42:36;;;;;;;7.27;6.00;;;;;;;1.93;95.70;97970.38;4991183;28;20626;-67
2021/03/16 02:45:04;;;;;;;11.13;5.73;;;;;;;1.95;94.59;97971.94;4995310;28;20526;-67
2021/03/16 02:47:32;;;;;;;6.23;5.57;;;;;;;1.99;94.30;97970.75;4993327;28;20210;-68
2021/03/16 02:49:59;;;;;;;7.07;5.50;;;;;;;1.99;95.14;97980.41;4986969;28;20296;-69
2021/03/16 02:52:26;;;;;;;5.73;5.20;;;;;;;2.04;93.94;97978.28;4988490;28;20217;-67
2021/03/16 02:54:54;;;;;;;6.40;5.73;;;;;;;2.01;94.40;97989.78;4982083;28;20214;-68
2021/03/16 02:57:23;;;;;;;5.93;5.10;;;;;;;2.12;93.35;97985.59;4988537;28;20200;-68
2021/03/16 02:59:50;;;;;;;6.50;5.83;;;;;;;1.99;94.49;97993.47;4990751;28;20209;-68
2021/03/16 03:02:18;;;;;;;6.30;5.20;;;;;;;2.03;93.59;97989.69;4985023;28;20206;-68
2021/03/16 03:04:47;;;;;;;10.00;5.73;;;;;;;1.98;93.41;97995.22;4985669;28;20229;-67
2021/03/16 03:07:15;;;;;;;9.97;5.87;;;;;;;2.08;92.57;98000.66;4994941;28;20236;-68
2021/03/16 03:09:42;;;;;;;9.07;5.77;;;;;;;1.97;93.60;97998.78;4995869;28;20635;-69
2021/03/16 03:12:10;;;;;;;8.60;5.93;;;;;;;2.02;92.19;98001.09;4986984;28;20202;-67
2021/03/16 03:14:38;;;;;;;8.67;5.67;;;;;;;2.05;92.37;98007.88;4991400;28;20881;-69
2021/03/16 03:17:08;;;;;;;6.80;4.67;;;;;;;2.08;91.80;98008.50;4988277;28;20205;-68
2021/03/16 03:19:36;;;;;;;6.10;4.83;;;;;;;2.06;91.80;98010.38;4996476;28;20205;-68
2021/03/16 03:22:09;;;;;;;5.63;4.67;;;;;;;2.02;92.07;98016.78;4994193;28;20232;-68
2021/03/16 03:24:41;;;;;;;8.47;4.63;;;;;;;2.05;93.21;98016.56;4995366;28;20319;-67
2021/03/16 03:27:15;;;;;;;10.57;4.83;;;;;;;2.01;92.49;98026.38;4992618;28;20267;-69
2021/03/16 03:29:44;;;;;;;5.20;4.80;;;;;;;2.01;92.12;98034.22;4990363;28;20761;-68
2021/03/16 03:32:12;;;;;;;8.87;4.87;;;;;;;1.93;92.99;98025.28;4997655;28;20235;-67
2021/03/16 03:34:41;;;;;;;5.47;4.87;;;;;;;2.01;91.97;98029.00;4988755;28;20230;-68
2021/03/16 03:37:10;;;;;;;13.93;4.83;;;;;;;2.05;91.41;98037.47;4987172;28;20217;-68
2021/03/16 03:39:38;;;;;;;5.30;4.63;;;;;;;2.04;91.42;98038.41;4999136;28;20297;-67
2021/03/16 03:42:07;;;;;;;4.47;4.03;;;;;;;2.03;91.42;98039.34;5000495;28;20231;-67
2021/03/16 03:44:34;;;;;;;7.23;4.63;;;;;;;1.99;91.49;98035.28;4998012;28;20730;-67
2021/03/16 03:47:02;;;;;;;5.70;5.20;;;;;;;2.10;92.20;98039.75;4997161;28;20237;-68
2021/03/16 03:49:30;;;;;;;4.33;3.97;;;;;;;2.09;91.83;98036.31;4999907;28;20198;-70
2021/03/16 03:51:57;;;;;;;5.00;4.70;;;;;;;2.06;90.90;98044.38;5000068;28;20206;-69
2021/03/16 03:54:26;;;;;;;10.30;5.13;;;;;;;2.07;89.24;98039.97;4999007;28;20245;-66
2021/03/16 03:56:54;;;;;;;9.10;5.20;;;;;;;2.02;90.16;98046.34;5004324;28;20778;-67
2021/03/16 03:59:22;;;;;;;7.93;4.50;;;;;;;2.04;90.56;98054.09;5001487;28;20201;-68
2021/03/16 04:01:50;;;;;;;6.70;5.03;;;;;;;1.97;91.52;98050.25;4994459;28;20209;-67
2021/03/16 04:04:17;;;;;;;7.63;5.20;;;;;;;1.94;91.56;98046.06;4999791;28;20760;-68
2021/03/16 04:06:46;;;;;;;5.23;4.77;;;;;;;2.05;91.26;98054.91;5003127;28;20235;-67
2021/03/16 04:09:12;;;;;;;6.07;4.80;;;;;;;1.79;92.45;98055.00;4994007;28;20696;-68
2021/03/16 04:11:40;;;;;;;10.53;5.07;;;;;;;1.88;92.38;98060.38;5001396;28;20656;-67
2021/03/16 04:14:07;;;;;;;6.33;4.97;;;;;;;2.05;91.18;98070.59;5000831;28;20244;-68
2021/03/16 04:16:35;;;;;;;10.17;4.20;;;;;;;1.92;92.67;98076.69;4997008;28;20208;-67
2021/03/16 04:19:02;;;;;;;5.60;5.07;;;;;;;1.82;92.42;98067.84;4998578;28;20479;-67
2021/03/16 04:21:29;;;;;;;5.10;4.60;;;;;;;1.88;92.20;98070.03;4994218;28;20209;-67
2021/03/16 04:23:56;;;;;;;8.73;4.60;;;;;;;1.79;92.90;98070.66;4998739;28;20225;-67
2021/03/16 04:26:23;;;;;;;9.20;5.40;;;;;;;1.84;92.73;98072.00;4995829;28;20744;-67
2021/03/16 04:28:51;;;;;;;4.77;4.20;;;;;;;1.78;92.84;98067.22;4991021;28;20216;-66
2021/03/16 04:31:18;;;;;;;8.60;4.30;;;;;;;1.76;93.60;98076.13;4997026;28;20205;-68
2021/03/16 04:33:45;;;;;;;6.83;4.47;;;;;;;1.69;93.36;98073.06;4999308;28;20232;-67
2021/03/16 04:36:12;;;;;;;5.53;5.03;;;;;;;1.79;93.07;98070.66;4991394;28;20206;-67
2021/03/16 04:38:39;;;;;;;7.03;4.23;;;;;;;1.87;92.17;98077.00;4993603;28;20209;-67
2021/03/16 04:41:05;;;;;;;5.40;4.07;;;;;;;1.69;93.39;98073.91;4988423;28;20598;-66
2021/03/16 04:43:33;;;;;;;6.37;3.60;;;;;;;1.73;92.03;98088.44;4998134;28;20728;-66
2021/03/16 04:46:00;;;;;;;5.73;3.90;;;;;;;1.76;92.73;98076.13;4998174;28;20221;-67
2021/03/16 04:48:28;;;;;;;6.23;3.70;;;;;;;1.70;92.50;98080.78;5000661;28;20205;-67
2021/03/16 04:50:55;;;;;;;7.07;4.30;;;;;;;1.69;93.01;98091.38;4992238;28;20228;-67
2021/03/16 04:53:22;;;;;;;4.53;4.10;;;;;;;1.77;92.33;98083.00;4994807;28;20255;-67
2021/03/16 04:55:48;;;;;;;5.73;3.93;;;;;;;1.73;91.61;98083.22;4997211;28;20786;-67
2021/03/16 04:58:35;;;;;;;8.27;4.93;;;;;;;1.71;92.28;98095.56;5000160;28;20215;-67
2021/03/16 05:01:03;;;;;;;8.10;3.60;;;;;;;1.73;91.49;98087.59;4997087;28;20218;-68
2021/03/16 05:03:30;;;;;;;4.77;3.97;;;;;;;1.72;92.33;98093.75;4995440;28;20506;-68
2021/03/16 05:05:58;;;;;;;6.40;3.90;;;;;;;1.70;92.15;98098.25;4996858;28;20605;-66
2021/03/16 05:08:26;;;;;;;5.03;3.77;;;;;;;1.80;91.26;98098.47;4981289;28;20206;-67
2021/03/16 05:10:53;;;;;;;9.83;4.53;;;;;;;1.67;92.23;98104.53;4983149;28;20217;-66
2021/03/16 05:13:20;;;;;;;6.93;4.40;;;;;;;1.72;91.56;98107.69;4988823;28;20232;-67
2021/03/16 05:15:47;;;;;;;6.63;3.50;;;;;;;1.71;91.25;98103.41;4991585;28;20673;-68
2021/03/16 05:18:15;;;;;;;4.80;3.60;;;;;;;1.78;91.18;98102.97;5002309;28;20212;-67
2021/03/16 05:20:43;;;;;;;6.30;3.80;;;;;;;1.79;90.33;98107.25;4984265;28;20212;-68
2021/03/16 05:23:11;;;;;;;7.17;3.53;;;;;;;1.72;90.45;98109.44;4989941;28;20884;-67
2021/03/16 05:25:38;;;;;;;6.33;3.77;;;;;;;1.74;91.48;98120.63;4992596;28;20212;-67
2021/03/16 05:28:05;;;;;;;8.80;4.43;;;;;;;1.82;90.45;98120.94;4991185;28;20688;-69
2021/03/16 05:30:32;;;;;;;6.20;3.60;;;;;;;1.75;91.32;98122.28;4991660;28;20212;-68
2021/03/16 05:33:00;;;;;;;6.20;3.53;;;;;;;1.74;90.39;98125.84;4995422;28;20295;-67
2021/03/16 05:35:29;;;;;;;9.07;5.33;;;;;;;1.70;90.97;98130.44;4991813;28;20229;-68
2021/03/16 05:37:57;;;;;;;7.40;3.57;;;;;;;1.70;90.86;98129.63;4992172;28;20578;-68
2021/03/16 05:40:25;;;;;;;8.70;3.77;;;;;;;1.89;89.43;98137.03;4989212;28;20205;-69
2021/03/16 05:42:52;;;;;;;5.63;3.77;;;;;;;1.85;90.66;98136.38;4993890;28;20225;-69
2021/03/16 05:45:19;;;;;;;5.87;4.67;;;;;;;1.75;90.94;98143.19;4993872;28;20220;-69
2021/03/16 05:47:48;;;;;;;5.17;3.80;;;;;;;1.88;90.19;98144.03;4995760;28;20229;-69
2021/03/16 05:50:16;;;;;;;8.77;4.50;;;;;;;1.85;91.20;98149.47;4993081;28;20208;-69
2021/03/16 05:52:44;;;;;;;5.97;4.50;;;;;;;1.83;90.26;98150.53;4999716;28;20298;-69
2021/03/16 05:55:12;;;;;;;3.70;3.40;;;;;;;1.83;90.62;98153.97;4994433;28;20205;-67
2021/03/16 05:57:39;;;;;;;4.97;4.43;;;;;;;1.81;90.62;98158.44;4990186;28;20583;-68
2021/03/16 06:00:08;;;;;;;7.27;4.10;;;;;;;1.88;90.53;98153.66;4981169;28;20225;-69
2021/03/16 06:02:36;;;;;;;6.30;3.43;;;;;;;1.85;90.95;98164.31;4985624;28;20216;-68
2021/03/16 06:05:06;;;;;;;6.67;3.77;;;;;;;1.88;91.25;98174.56;4994950;28;20213;-67
2021/03/16 06:07:33;;;;;;;7.60;4.50;;;;;;;1.91;89.98;98176.97;4985811;28;20217;-69
2021/03/16 06:10:01;;;;;;;5.97;4.63;;;;;;;1.92;90.04;98177.81;4987988;28;20225;-67
2021/03/16 06:12:28;;;;;;;6.33;4.40;;;;;;;1.95;90.43;98173.19;4992409;28;20212;-69
2021/03/16 06:14:55;;;;;;;9.30;6.20;;;;;;;1.89;91.06;98186.69;4996283;28;20202;-69
2021/03/16 06:17:22;;;;;;;6.33;5.70;;;;;;;1.95;90.23;98188.06;4990971;28;20210;-68
2021/03/16 06:19:50;;;;;;;8.43;5.13;;;;;;;1.97;90.76;98194.00;4983674;28;20400;-69
2021/03/16 06:22:19;;;;;;;12.00;5.93;;;;;;;2.02;90.51;98191.91;4992199;28;20212;-68
2021/03/16 06:24:47;;;;;;;11.13;8.90;;;;;;;1.99;90.64;98194.75;4990378;28;20239;-69
2021/03/16 06:27:24;;;;;;;20.63;18.47;;;;;;;1.97;91.24;98200.06;4990969;28;20225;-69
2021/03/16 06:29:53;;;;;;;13.67;12.17;;;;;;;1.95;91.14;98196.72;4998783;28;20263;-68
2021/03/16 06:32:20;;;;;;;8.20;6.17;;;;;;;1.99;90.98;98202.59;4980368;28;20298;-69
2021/03/16 06:34:47;;;;;;;9.90;6.03;;;;;;;2.04;90.58;98203.09;4999802;28;20431;-69
2021/03/16 06:37:18;;;;;;;8.23;6.63;;;;;;;2.14;89.93;98203.31;4993387;28;20546;-69
2021/03/16 06:39:45;;;;;;;43.40;26.97;;;;;;;2.09;89.90;98213.25;4992676;28;20220;-69
2021/03/16 06:42:22;;;;;;;21.50;14.93;;;;;;;2.19;89.45;98211.69;4995143;28;20213;-69
2021/03/16 06:45:01;;;;;;;7.73;5.80;;;;;;;2.14;89.50;98206.75;4991450;28;20233;-69
2021/03/16 06:47:28;;;;;;;31.37;23.53;;;;;;;2.16;89.29;98220.56;4996256;28;20617;-69
2021/03/16 06:49:55;;;;;;;10.17;6.67;;;;;;;2.07;90.22;98225.56;4991471;28;20400;-68
2021/03/16 06:52:26;;;;;;;6.00;5.40;;;;;;;2.14;90.93;98226.84;4987638;28;20220;-67
2021/03/16 06:54:53;;;;;;;5.60;5.10;;;;;;;2.18;89.93;98223.09;4987367;28;20224;-69
2021/03/16 06:57:23;;;;;;;8.93;8.03;;;;;;;2.13;90.71;98226.00;4987893;28;20206;-68
2021/03/16 07:00:10;;;;;;;11.47;7.30;;;;;;;2.06;91.47;98234.34;4981722;28;20205;-69
2021/03/16 07:02:39;;;;;;;7.70;5.70;;;;;;;2.09;91.30;98236.78;4989511;28;20685;-69
2021/03/16 07:05:08;;;;;;;8.83;7.80;;;;;;;1.99;91.73;98244.41;4986856;28;20221;-69
2021/03/16 07:07:35;;;;;;;6.47;5.50;;;;;;;2.09;92.34;98239.41;4986732;28;20944;-68
2021/03/16 07:10:05;;;;;;;5.33;4.83;;;;;;;2.00;92.57;98257.38;4985570;28;20206;-68
2021/03/16 07:12:34;;;;;;;4.47;3.83;;;;;;;2.15;90.99;98250.25;4980359;28;20236;-69
2021/03/16 07:15:03;;;;;;;8.33;6.03;;;;;;;2.13;90.20;98259.16;4985030;28;20208;-68
2021/03/16 07:17:32;;;;;;;7.07;5.50;;;;;;;2.08;90.86;98253.38;4996988;28;20329;-67
2021/03/16 07:20:04;;;;;;;6.87;4.70;;;;;;;2.05;89.63;98264.06;5002285;28;20204;-67
2021/03/16 07:22:37;;;;;;;8.83;5.43;;;;;;;2.09;89.52;98269.00;4996224;28;20209;-68
2021/03/16 07:25:08;;;;;;;6.57;4.57;;;;;;;2.13;89.47;98277.47;4988617;28;20206;-68
2021/03/16 07:27:36;;;;;;;11.73;5.27;;;;;;;2.35;87.13;98276.00;4995196;28;20225;-68
2021/03/16 07:30:05;;;;;;;7.87;4.47;;;;;;;2.33;86.79;98273.50;4989764;28;20232;-70
2021/03/16 07:32:34;;;;;;;6.57;4.73;;;;;;;2.39;87.01;98274.84;4993843;28;20213;-67
2021/03/16 07:35:02;;;;;;;5.10;4.37;;;;;;;2.41;87.58;98281.66;4990817;28;20469;-68
2021/03/16 07:37:30;;;;;;;8.47;4.47;;;;;;;2.49;85.69;98278.53;4984936;28;20252;-69
2021/03/16 07:40:01;;;;;;;7.67;4.63;;;;;;;2.62;85.27;98288.13;4992509;28;20202;-68
2021/03/16 07:42:29;;;;;;;7.13;3.90;;;;;;;2.76;84.16;98282.75;4997334;28;20654;-67
2021/03/16 07:44:56;;;;;;;7.33;3.90;;;;;;;2.97;81.66;98287.44;4991207;28;20697;-68
2021/03/16 07:47:34;;;;;;;7.97;3.73;;;;;;;3.13;81.67;98285.41;4999687;28;20236;-69
2021/03/16 07:50:04;;;;;;;4.27;3.40;;;;;;;3.04;80.61;98289.53;4994507;28;20312;-68
2021/03/16 07:52:31;;;;;;;3.97;3.27;;;;;;;3.07;81.15;98304.16;4994328;28;20263;-70
2021/03/16 07:54:58;;;;;;;10.67;4.37;;;;;;;3.01;80.18;98309.84;4998093;28;20225;-69
2021/03/16 07:57:26;;;;;;;7.90;3.73;;;;;;;2.98;81.17;98307.44;4991070;28;20206;-68
2021/03/16 08:00:01;;;;;;;3.83;3.30;;;;;;;3.01;80.18;98307.22;4995375;28;20209;-69
2021/03/16 08:02:29;;;;;;;7.63;3.67;;;;;;;3.09;79.87;98312.75;4992760;28;20304;-68
2021/03/16 08:04:58;;;;;;;5.60;3.30;;;;;;;3.05;79.22;98324.41;4992253;28;20211;-69
2021/03/16 08:07:28;;;;;;;4.70;3.50;;;;;;;2.98;78.95;98320.53;5000875;28;20228;-67
2021/03/16 08:09:58;;;;;;;4.77;3.50;;;;;;;2.96;78.27;98319.81;4989452;28;20297;-69
2021/03/16 08:12:26;;;;;;;8.13;3.03;;;;;;;2.93;78.34;98326.09;4988984;28;20225;-69
2021/03/16 08:14:57;;;;;;;3.83;2.97;;;;;;;3.04;77.86;98327.97;4987881;28;20198;-70
2021/03/16 08:17:28;;;;;;;4.83;3.53;;;;;;;3.06;77.02;98336.53;4985250;28;20202;-69
2021/03/16 08:19:55;;;;;;;6.17;3.87;;;;;;;3.15;77.45;98333.25;4989599;28;20202;-70
2021/03/16 08:22:24;;;;;;;3.57;2.63;;;;;;;3.06;75.87;98343.56;4989361;28;20205;-69
2021/03/16 08:24:52;;;;;;;6.17;2.80;;;;;;;3.12;75.09;98345.75;4996283;28;20230;-69
2021/03/16 08:27:20;;;;;;;7.33;3.33;;;;;;;3.23;76.31;98342.38;4998361;28;20604;-70
2021/03/16 08:29:48;;;;;;;4.67;3.30;;;;;;;3.31;74.89;98337.44;4983657;28;20211;-69
2021/03/16 08:32:17;;;;;;;5.63;3.70;;;;;;;3.29;75.05;98347.19;4997414;28;20217;-69
2021/03/16 08:34:45;;;;;;;6.47;3.30;;;;;;;3.34;74.76;98342.44;4990669;28;20232;-70
2021/03/16 08:37:23;;;;;;;3.90;3.07;;;;;;;3.45;75.53;98350.38;4980482;28;20208;-69
2021/03/16 08:39:52;;;;;;;6.93;2.80;;;;;;;3.57;73.60;98353.91;4996852;28;20205;-68
2021/03/16 08:42:21;;;;;;;6.40;2.90;;;;;;;3.64;70.22;98358.69;4984675;28;20209;-67
2021/03/16 08:44:49;;;;;;;3.03;2.17;;;;;;;3.50;68.38;98365.78;4995314;28;20232;-68
2021/03/16 08:47:17;;;;;;;6.53;3.33;;;;;;;3.58;67.94;98354.72;4993661;28;20224;-66
2021/03/16 08:49:47;;;;;;;4.80;2.13;;;;;;;3.65;68.80;98363.84;4978316;28;20297;-69
2021/03/16 08:52:21;;;;;;;4.23;2.60;;;;;;;3.68;67.91;98371.47;4986709;28;20520;-69
2021/03/16 08:54:49;;;;;;;3.67;2.00;;;;;;;3.76;68.20;98374.38;4994630;28;20314;-69
2021/03/16 08:57:19;;;;;;;3.73;2.10;;;;;;;3.66;66.38;98373.38;4999547;28;20740;-68
2021/03/16 08:59:47;;;;;;;7.27;2.77;;;;;;;3.59;66.38;98366.88;4989611;28;20210;-69
2021/03/16 09:02:19;;;;;;;4.97;3.07;;;;;;;3.45;67.49;98370.50;4989941;28;20605;-69
2021/03/16 09:04:46;;;;;;;3.23;2.80;;;;;;;3.47;67.51;98374.69;4985579;28;20752;-69
2021/03/16 09:07:20;;;;;;;6.00;2.73;;;;;;;3.47;68.04;98369.44;4994194;28;20233;-69
2021/03/16 09:09:47;;;;;;;4.43;2.93;;;;;;;3.57;67.54;98372.25;4989712;28;20209;-69
2021/03/16 09:12:26;;;;;;;11.40;4.03;;;;;;;3.68;66.09;98376.72;4991691;28;20208;-68
2021/03/16 09:14:53;;;;;;;5.67;3.57;;;;;;;3.74;64.80;98381.50;4991660;28;20506;-70
2021/03/16 09:17:20;;;;;;;3.87;3.23;;;;;;;3.66;65.81;98385.63;4980599;28;20214;-69
2021/03/16 09:19:48;;;;;;;6.00;3.13;;;;;;;3.59;61.82;98378.22;4995435;28;20209;-69
2021/03/16 09:22:15;;;;;;;2.20;1.97;;;;;;;3.82;58.65;98386.22;4996192;28;20296;-68
2021/03/16 09:24:44;;;;;;;5.73;2.47;;;;;;;3.69;59.82;98382.78;4985200;28;20249;-69
2021/03/16 09:27:11;;;;;;;4.37;2.13;;;;;;;3.70;60.40;98374.81;4996675;28;20247;-69
2021/03/16 09:29:39;;;;;;;3.07;2.10;;;;;;;3.76;61.05;98378.75;4979912;28;20577;-69
2021/03/16 09:32:15;;;;;;;6.53;2.53;;;;;;;3.90;60.74;98383.00;4984042;28;20201;-69
2021/03/16 09:34:45;;;;;;;6.43;2.67;;;;;;;3.68;62.28;98379.34;4984044;28;20233;-69
2021/03/16 09:37:14;;;;;;;5.10;2.43;;;;;;;3.58;63.18;98391.41;4985353;28;20467;-69
2021/03/16 09:39:52;;;;;;;3.07;2.23;;;;;;;3.43;64.94;98391.56;4995359;28;20247;-69
2021/03/16 09:42:19;;;;;;;2.53;2.33;;;;;;;3.37;67.24;98394.63;4987830;28;20204;-68
2021/03/16 09:44:47;;;;;;;5.53;2.80;;;;;;;3.50;68.61;98396.38;4995166;28;20589;-69
2021/03/16 09:47:34;;;;;;;5.77;2.80;;;;;;;3.42;69.98;98397.75;5000037;28;20472;-69
2021/03/16 09:50:07;;;;;;;4.00;2.57;;;;;;;3.51;69.16;98395.41;4979963;28;20575;-70
2021/03/16 09:52:34;;;;;;;4.67;2.43;;;;;;;3.71;68.29;98386.97;4992408;28;20205;-67
2021/03/16 09:55:01;;;;;;;5.37;2.70;;;;;;;3.96;66.88;98390.44;4987722;28;20202;-68
2021/03/16 09:57:33;;;;;;;5.77;2.83;;;;;;;4.18;66.14;98392.34;4992345;28;20200;-68
2021/03/16 10:00:01;;;;;;;3.80;1.90;;;;;;;4.17;64.22;98401.16;4993905;28;20351;-68
2021/03/16 10:02:42;;;;;;;4.13;2.10;;;;;;;4.09;61.86;98397.41;4976944;28;20741;-68
2021/03/16 10:05:11;;;;;;;2.17;1.93;;;;;;;4.18;60.09;98396.72;4995337;28;20258;-68
2021/03/16 10:07:41;;;;;;;2.20;1.80;;;;;;;4.23;60.29;98393.78;4989933;28;20237;-69
2021/03/16 10:10:14;;;;;;;4.00;2.17;;;;;;;4.29;59.97;98385.44;4986247;28;20619;-68
2021/03/16 10:12:55;;;;;;;2.17;2.03;;;;;;;4.49;58.83;98392.63;4987359;28;20221;-69
2021/03/16 10:15:26;;;;;;;1.70;1.60;;;;;;;4.49;59.98;98387.38;4983285;28;20213;-69
2021/03/16 10:17:54;;;;;;;4.23;1.87;;;;;;;4.68;58.80;98395.66;4992392;28;20210;-67
2021/03/16 10:20:27;;;;;;;2.63;1.60;;;;;;;4.33;56.63;98392.13;4992013;28;20245;-69
2021/03/16 10:22:57;;;;;;;1.80;1.43;;;;;;;4.12;56.99;98400.63;4991026;28;20230;-69
2021/03/16 10:25:26;;;;;;;4.53;1.47;;;;;;;4.08;59.22;98403.59;4997244;28;20720;-69
2021/03/16 10:27:59;;;;;;;2.63;2.20;;;;;;;4.22;59.66;98399.97;4994987;28;20988;-69
2021/03/16 10:30:32;;;;;;;1.63;1.50;;;;;;;4.26;58.30;98398.78;4991317;28;20232;-69
2021/03/16 10:33:05;;;;;;;2.60;2.40;;;;;;;4.28;58.35;98407.38;4987303;28;20228;-68
2021/03/16 10:35:33;;;;;;;4.50;1.80;;;;;;;4.40;57.60;98398.59;4989535;28;20777;-70
2021/03/16 10:38:02;;;;;;;1.63;1.53;;;;;;;4.76;57.00;98404.63;4995436;28;20283;-68
2021/03/16 10:40:30;;;;;;;4.07;2.00;;;;;;;4.87;57.59;98413.47;4989569;28;20213;-70
2021/03/16 10:42:57;;;;;;;2.87;2.23;;;;;;;4.93;58.06;98403.34;4985980;28;20748;-68
2021/03/16 10:45:24;;;;;;;3.00;2.30;;;;;;;4.93;58.50;98402.53;4993946;28;20202;-70
2021/03/16 10:47:52;;;;;;;3.13;2.57;;;;;;;5.05;58.58;98414.72;4995246;28;20257;-69
2021/03/16 10:50:20;;;;;;;2.23;1.90;;;;;;;5.04;59.68;98407.78;4994864;28;20697;-70
2021/03/16 10:52:47;;;;;;;4.03;2.40;;;;;;;4.85;59.32;98410.97;4997380;28;20380;-68
2021/03/16 10:55:14;;;;;;;3.50;2.47;;;;;;;4.63;59.43;98399.47;4993313;28;20205;-70
2021/03/16 10:57:41;;;;;;;2.27;2.07;;;;;;;4.67;59.98;98407.97;4998972;28;20523;-69
2021/03/16 11:00:10;;;;;;;2.87;2.63;;;;;;;4.66;60.17;98403.69;4992313;28;20216;-69
2021/03/16 11:02:37;;;;;;;1.97;1.87;;;;;;;5.00;58.74;98408.13;4983223;28;20208;-68
2021/03/16 11:05:08;;;;;;;1.80;1.30;;;;;;;5.15;57.65;98401.69;4990262;28;20209;-69
2021/03/16 11:07:35;;;;;;;2.90;1.77;;;;;;;5.00;54.82;98397.63;4983228;28;20222;-69
2021/03/16 11:10:04;;;;;;;3.97;1.77;;;;;;;5.05;54.81;98411.22;4989593;28;20284;-70
2021/03/16 11:12:31;;;;;;;2.07;1.50;;;;;;;5.14;54.18;98396.56;4993010;28;20209;-68
2021/03/16 11:14:58;;;;;;;2.57;1.33;;;;;;;4.99;54.17;98398.56;4989271;28;20206;-68
2021/03/16 11:17:25;;;;;;;2.07;1.70;;;;;;;4.80;55.76;98410.50;4995781;28;20205;-68
2021/03/16 11:19:52;;;;;;;1.40;1.33;;;;;;;4.91;54.82;98399.16;4995700;28;20210;-67
2021/03/16 11:22:20;;;;;;;2.03;1.80;;;;;;;4.81;54.89;98413.94;4986686;28;20605;-69
2021/03/16 11:24:48;;;;;;;5.47;2.10;;;;;;;4.66;56.34;98408.06;4984540;28;20501;-70
2021/03/16 11:27:15;;;;;;;1.63;1.53;;;;;;;4.52;57.59;98416.97;5000300;28;20229;-70
2021/03/16 11:29:43;;;;;;;2.80;1.90;;;;;;;4.36;58.65;98412.88;4991035;28;20205;-69
2021/03/16 11:32:10;;;;;;;2.30;1.33;;;;;;;4.45;58.84;98427.94;4994820;28;20682;-67
2021/03/16 11:34:37;;;;;;;1.87;1.60;;;;;;;4.67;59.17;98428.97;4998388;28;20411;-68
2021/03/16 11:37:04;;;;;;;2.23;2.03;;;;;;;4.56;59.78;98419.28;4991352;28;20205;-68
2021/03/16 11:39:32;;;;;;;2.07;1.77;;;;;;;4.62;59.62;98424.06;4991848;28;20318;-69
2021/03/16 11:41:59;;;;;;;2.93;1.83;;;;;;;5.04;57.39;98420.06;4997529;28;20210;-68
2021/03/16 11:44:26;;;;;;;2.50;1.77;;;;;;;5.12;56.94;98427.38;4996883;28;20225;-69
2021/03/16 11:46:53;;;;;;;5.27;2.00;;;;;;;5.30;55.92;98425.94;4997206;28;20213;-68
2021/03/16 11:49:21;;;;;;;2.27;2.07;;;;;;;5.28;55.86;98419.13;4987761;28;20220;-69